createdAt,value
2019-05-07T00:03:03.272Z,18.90
2019-05-07T00:06:06.962Z,16.70
2019-05-07T00:09:14.693Z,19.40
2019-05-07T00:12:18.135Z,18.27
2019-05-07T00:15:22.994Z,20.07
2019-05-07T00:18:26.546Z,18.17
2019-05-07T00:21:30.002Z,19.60
2019-05-07T00:24:33.462Z,22.67
2019-05-07T00:27:36.933Z,21.13
2019-05-07T00:30:42.383Z,21.30
2019-05-07T00:33:45.574Z,22.50
2019-05-07T00:36:59.595Z,22.93
2019-05-07T00:40:08.679Z,24.03
2019-05-07T00:43:13.786Z,23.13
2019-05-07T00:46:18.877Z,24.60
2019-05-07T00:49:24.018Z,24.23
2019-05-07T00:52:27.474Z,24.23
2019-05-07T00:55:32.607Z,27.63
2019-05-07T00:58:36.158Z,25.97
2019-05-07T01:01:39.626Z,25.33
2019-05-07T01:04:43.086Z,24.37
2019-05-07T01:07:46.565Z,24.13
2019-05-07T01:10:50.002Z,24.57
2019-05-07T01:13:53.466Z,28.97
2019-05-07T01:17:02.633Z,28.80
2019-05-07T01:20:06.090Z,28.83
2019-05-07T01:23:09.530Z,27.67
2019-05-07T01:26:13.067Z,28.27
2019-05-07T01:29:16.505Z,30.50
2019-05-07T01:32:22.197Z,28.00
2019-05-07T01:35:33.104Z,28.13
2019-05-07T01:38:36.566Z,30.17
2019-05-07T01:41:41.932Z,32.57
2019-05-07T01:44:45.191Z,31.63
2019-05-07T01:47:48.663Z,30.40
2019-05-07T01:50:52.675Z,34.47
2019-05-07T01:53:56.277Z,33.40
2019-05-07T01:56:59.722Z,31.70
2019-05-07T02:00:04.761Z,34.20
2019-05-07T02:03:12.588Z,33.27
2019-05-07T02:06:17.706Z,32.70
2019-05-07T02:09:22.808Z,32.57
2019-05-07T02:12:27.921Z,38.27
2019-05-07T02:15:32.267Z,35.00
2019-05-07T02:18:36.002Z,32.60
2019-05-07T02:21:39.440Z,32.47
2019-05-07T02:24:43.377Z,33.00
2019-05-07T02:27:47.021Z,35.50
2019-05-07T02:30:53.530Z,36.07
2019-05-07T02:33:56.058Z,38.27
2019-05-07T02:36:59.531Z,37.30
2019-05-07T02:40:17.683Z,33.10
2019-05-07T02:43:22.747Z,36.77
2019-05-07T02:46:44.501Z,33.63
2019-05-07T02:49:49.604Z,34.30
2019-05-07T02:53:03.921Z,34.07
2019-05-07T02:56:05.999Z,33.67
2019-05-07T02:59:09.459Z,33.73
2019-05-07T03:02:13.971Z,33.97
2019-05-07T03:05:17.571Z,35.27
2019-05-07T03:08:26.307Z,31.73
2019-05-07T03:11:26.210Z,33.47
2019-05-07T03:14:32.270Z,33.93
2019-05-07T03:17:34.907Z,36.10
2019-05-07T03:20:42.962Z,36.83
2019-05-07T03:24:06.614Z,32.37
2019-05-07T03:27:13.812Z,33.07
2019-05-07T03:30:26.014Z,33.27
2019-05-07T03:33:38.896Z,33.47
2019-05-07T03:36:48.602Z,34.03
2019-05-07T03:39:53.785Z,34.40
2019-05-07T03:42:57.135Z,34.10
2019-05-07T03:46:14.492Z,35.13
2019-05-07T03:49:27.617Z,32.77
2019-05-07T03:52:33.517Z,38.33
2019-05-07T03:55:36.243Z,36.77
2019-05-07T03:58:39.707Z,33.30
2019-05-07T04:01:43.235Z,32.57
2019-05-07T04:04:46.702Z,30.43
2019-05-07T04:07:50.250Z,34.17
2019-05-07T04:10:54.063Z,29.40
2019-05-07T04:13:57.854Z,33.63
2019-05-07T04:17:14.371Z,29.43
2019-05-07T04:20:08.819Z,28.77
2019-05-07T04:23:13.820Z,32.80
2019-05-07T04:26:19.110Z,30.93
2019-05-07T04:29:23.198Z,29.10
2019-05-07T04:32:28.550Z,25.80
2019-05-07T04:35:43.056Z,26.43
2019-05-07T04:38:44.829Z,25.60
2019-05-07T04:41:48.288Z,24.70
2019-05-07T04:44:54.039Z,19.30
2019-05-07T04:47:56.994Z,18.63
2019-05-07T04:51:03.583Z,17.07
2019-05-07T04:54:07.339Z,17.23
2019-05-07T04:57:25.892Z,15.60
2019-05-07T05:00:29.436Z,13.17
2019-05-07T05:03:34.738Z,15.03
2019-05-07T05:06:38.144Z,14.03
2019-05-07T05:09:42.592Z,15.20
2019-05-07T05:12:46.366Z,17.17
2019-05-07T05:15:49.797Z,13.07
2019-05-07T05:18:54.402Z,28.10
2019-05-07T05:22:08.400Z,15.63
2019-05-07T05:25:13.903Z,16.40
2019-05-07T05:28:17.434Z,8.77
2019-05-07T05:31:22.257Z,9.33
2019-05-07T05:34:25.963Z,8.80
2019-05-07T05:37:29.433Z,8.80
2019-05-07T05:40:32.878Z,13.87
2019-05-07T05:43:38.022Z,10.07
2019-05-07T05:46:42.850Z,11.07
2019-05-07T05:49:46.511Z,9.97
2019-05-07T05:52:52.055Z,10.67
2019-05-07T05:55:57.222Z,10.50
2019-05-07T05:59:25.473Z,8.17
2019-05-07T06:02:38.025Z,7.20
2019-05-07T06:05:52.323Z,9.13
2019-05-07T06:09:14.126Z,8.87
2019-05-07T06:12:25.449Z,11.87
2019-05-07T06:15:33.506Z,10.03
2019-05-07T06:18:47.383Z,11.80
2019-05-07T06:21:52.720Z,11.07
2019-05-07T06:25:02.337Z,12.97
2019-05-07T06:28:06.023Z,10.63
2019-05-07T06:31:09.494Z,11.90
2019-05-07T06:34:12.957Z,11.20
2019-05-07T06:37:16.421Z,9.67
2019-05-07T06:40:26.655Z,9.13
2019-05-07T06:43:28.563Z,7.63
2019-05-07T06:46:32.351Z,11.30
2019-05-07T06:49:35.864Z,12.60
2019-05-07T06:52:39.342Z,7.30
2019-05-07T06:55:42.859Z,6.73
2019-05-07T06:58:47.964Z,5.93
2019-05-07T07:01:56.038Z,5.93
2019-05-07T07:05:02.860Z,7.10
2019-05-07T07:08:12.435Z,8.93
2019-05-07T07:11:22.926Z,5.63
2019-05-07T07:14:26.409Z,5.57
2019-05-07T07:17:29.844Z,6.60
2019-05-07T07:20:33.316Z,8.00
2019-05-07T07:23:36.740Z,6.67
2019-05-07T07:26:43.202Z,6.13
2019-05-07T07:29:53.985Z,6.67
2019-05-07T07:32:59.089Z,6.37
2019-05-07T07:36:02.697Z,7.50
2019-05-07T07:39:07.965Z,5.37
2019-05-07T07:42:12.401Z,8.03
2019-05-07T07:45:16.998Z,8.23
2019-05-07T07:48:24.068Z,6.50
2019-05-07T07:51:37.750Z,7.80
2019-05-07T07:54:32.077Z,8.30
2019-05-07T07:57:42.612Z,7.77
2019-05-07T08:00:52.197Z,7.63
2019-05-07T08:03:55.079Z,9.10
2019-05-07T08:07:04.459Z,8.87
2019-05-07T08:10:09.738Z,7.03
2019-05-07T08:13:13.207Z,6.63
2019-05-07T08:16:16.703Z,6.47
2019-05-07T08:19:24.375Z,7.57
2019-05-07T08:22:25.438Z,6.53
2019-05-07T08:25:46.751Z,6.10
2019-05-07T08:28:52.282Z,7.67
2019-05-07T08:32:05.673Z,7.50
2019-05-07T08:35:14.335Z,6.87
2019-05-07T08:38:17.841Z,6.10
2019-05-07T08:41:22.635Z,7.80
2019-05-07T08:44:27.806Z,6.93
2019-05-07T08:47:32.916Z,6.50
2019-05-07T08:50:36.354Z,8.47
2019-05-07T08:53:39.825Z,10.37
2019-05-07T08:56:43.287Z,7.77
2019-05-07T08:59:57.427Z,9.63
2019-05-07T09:02:52.498Z,7.73
2019-05-07T09:05:56.049Z,10.47
2019-05-07T09:08:59.507Z,7.47
2019-05-07T09:12:03.245Z,8.93
2019-05-07T09:15:07.830Z,9.77
2019-05-07T09:18:12.386Z,8.50
2019-05-07T09:21:16.021Z,12.87
2019-05-07T09:24:19.464Z,9.63
2019-05-07T09:27:25.227Z,8.60
2019-05-07T09:30:46.722Z,10.17
2019-05-07T09:33:52.220Z,15.53
2019-05-07T09:37:12.610Z,13.43
2019-05-07T09:40:16.198Z,12.03
2019-05-07T09:43:21.896Z,9.47
2019-05-07T09:46:25.073Z,12.63
2019-05-07T09:49:28.546Z,10.83
2019-05-07T09:52:32.277Z,9.50
2019-05-07T09:55:36.031Z,10.23
2019-05-07T09:58:39.499Z,8.30
2019-05-07T10:01:43.031Z,9.60
2019-05-07T10:04:46.541Z,9.37
2019-05-07T10:07:50.050Z,8.10
2019-05-07T10:10:53.506Z,7.87
2019-05-07T10:14:01.971Z,8.93
2019-05-07T10:17:11.976Z,13.07
2019-05-07T10:20:21.743Z,10.07
2019-05-07T10:23:22.856Z,8.60
2019-05-07T10:26:26.286Z,9.83
2019-05-07T10:29:29.724Z,6.30
2019-05-07T10:32:33.185Z,7.60
2019-05-07T10:35:36.696Z,6.63
2019-05-07T10:38:40.433Z,8.00
2019-05-07T10:41:43.901Z,5.87
2019-05-07T10:44:48.971Z,6.40
2019-05-07T10:47:56.846Z,7.20
2019-05-07T10:51:04.609Z,8.43
2019-05-07T10:54:08.204Z,7.43
2019-05-07T10:57:12.007Z,8.80
2019-05-07T11:00:18.466Z,8.80
2019-05-07T11:03:22.058Z,9.47
2019-05-07T11:06:25.609Z,8.23
2019-05-07T11:09:29.038Z,9.37
2019-05-07T11:12:32.501Z,8.67
2019-05-07T11:15:36.112Z,7.73
2019-05-07T11:18:44.162Z,9.73
2019-05-07T11:21:47.602Z,7.30
2019-05-07T11:24:52.249Z,8.93
2019-05-07T11:27:55.773Z,8.37
2019-05-07T11:30:59.239Z,6.27
2019-05-07T11:34:02.937Z,7.60
2019-05-07T11:37:06.528Z,8.47
2019-05-07T11:40:10.617Z,8.50
2019-05-07T11:43:15.729Z,8.53
2019-05-07T11:46:22.218Z,5.37
2019-05-07T11:49:32.607Z,6.10
2019-05-07T11:52:36.882Z,7.77
2019-05-07T11:55:42.042Z,9.33
2019-05-07T11:58:45.661Z,7.67
2019-05-07T12:01:56.635Z,7.90
2019-05-07T12:05:01.846Z,8.13
2019-05-07T12:08:05.261Z,8.63
2019-05-07T12:11:08.718Z,9.53
2019-05-07T12:14:12.489Z,7.40
2019-05-07T12:17:16.101Z,9.17
2019-05-07T12:20:21.844Z,9.23
2019-05-07T12:23:25.430Z,8.70
2019-05-07T12:26:28.895Z,7.67
2019-05-07T12:29:32.451Z,8.13
2019-05-07T12:32:42.658Z,8.90
2019-05-07T12:35:45.729Z,8.00
2019-05-07T12:38:49.197Z,6.90
2019-05-07T12:41:52.672Z,7.90
2019-05-07T12:44:56.097Z,6.10
2019-05-07T12:47:59.561Z,6.37
2019-05-07T12:51:03.013Z,7.97
2019-05-07T12:54:26.066Z,5.70
2019-05-07T12:57:29.508Z,6.30
2019-05-07T13:00:43.754Z,5.80
2019-05-07T13:04:02.671Z,5.00
2019-05-07T13:07:08.057Z,5.13
2019-05-07T13:10:11.586Z,5.73
2019-05-07T13:13:15.037Z,5.13
2019-05-07T13:16:18.498Z,5.57
2019-05-07T13:19:22.625Z,5.90
2019-05-07T13:22:26.281Z,5.03
2019-05-07T13:25:32.240Z,6.90
2019-05-07T13:28:35.245Z,5.30
2019-05-07T13:31:39.842Z,5.63
2019-05-07T13:34:43.542Z,5.40
2019-05-07T13:37:51.923Z,5.67
2019-05-07T13:41:12.764Z,5.00
2019-05-07T13:44:31.906Z,5.37
2019-05-07T13:47:36.636Z,5.70
2019-05-07T13:50:41.935Z,4.40
2019-05-07T13:53:45.330Z,4.73
2019-05-07T13:56:48.793Z,4.57
2019-05-07T13:59:53.232Z,4.27
2019-05-07T14:02:56.785Z,4.87
2019-05-07T14:06:02.089Z,5.90
2019-05-07T14:09:10.014Z,4.70
2019-05-07T14:12:13.530Z,4.40
2019-05-07T14:15:17.133Z,4.90
2019-05-07T14:18:24.098Z,5.50
2019-05-07T14:21:28.898Z,5.97
2019-05-07T14:24:32.805Z,5.60
2019-05-07T14:27:36.597Z,5.83
2019-05-07T14:30:41.964Z,8.27
2019-05-07T14:33:49.835Z,6.27
2019-05-07T14:37:01.922Z,5.77
2019-05-07T14:40:07.134Z,6.73
2019-05-07T14:43:12.659Z,6.03
2019-05-07T14:46:16.169Z,6.80
2019-05-07T14:49:19.636Z,5.80
2019-05-07T14:52:32.654Z,5.53
2019-05-07T14:55:28.261Z,5.53
2019-05-07T14:58:31.958Z,6.07
2019-05-07T15:01:35.638Z,5.97
2019-05-07T15:04:39.393Z,5.73
2019-05-07T15:07:43.039Z,6.63
2019-05-07T15:10:47.160Z,5.97
2019-05-07T15:13:52.173Z,5.73
2019-05-07T15:16:57.402Z,7.50
2019-05-07T15:20:02.805Z,8.73
2019-05-07T15:23:11.969Z,10.37
2019-05-07T15:26:15.754Z,11.40
2019-05-07T15:29:19.453Z,9.03
2019-05-07T15:32:22.921Z,9.23
2019-05-07T15:35:26.382Z,9.53
2019-05-07T15:38:29.818Z,8.03
2019-05-07T15:41:33.281Z,6.87
2019-05-07T15:44:36.737Z,7.10
2019-05-07T15:47:44.770Z,8.33
2019-05-07T15:50:48.220Z,6.77
2019-05-07T15:53:56.033Z,7.43
2019-05-07T15:57:01.903Z,7.53
2019-05-07T16:00:09.028Z,7.57
2019-05-07T16:03:14.108Z,7.23
2019-05-07T16:06:17.575Z,8.77
2019-05-07T16:09:22.123Z,8.10
2019-05-07T16:12:25.562Z,7.63
2019-05-07T16:15:29.030Z,8.20
2019-05-07T16:18:34.106Z,8.20
2019-05-07T16:21:37.558Z,8.77
2019-05-07T16:24:41.005Z,7.47
2019-05-07T16:27:44.474Z,6.63
2019-05-07T16:30:47.930Z,7.03
2019-05-07T16:33:52.161Z,8.03
2019-05-07T16:36:55.720Z,7.57
2019-05-07T16:40:01.567Z,10.33
2019-05-07T16:43:05.138Z,7.00
2019-05-07T16:46:08.611Z,8.10
2019-05-07T16:49:12.343Z,7.20
2019-05-07T16:52:15.879Z,8.00
2019-05-07T16:55:19.521Z,6.53
2019-05-07T16:58:35.027Z,6.80
2019-05-07T17:01:38.881Z,6.60
2019-05-07T17:04:43.998Z,7.47
2019-05-07T17:07:52.300Z,6.33
2019-05-07T17:10:55.803Z,6.83
2019-05-07T17:13:59.330Z,8.07
2019-05-07T17:17:02.782Z,7.00
2019-05-07T17:20:07.582Z,7.53
2019-05-07T17:23:11.910Z,6.37
2019-05-07T17:26:15.657Z,7.50
2019-05-07T17:29:19.128Z,7.40
2019-05-07T17:32:22.982Z,7.03
2019-05-07T17:35:26.604Z,8.23
2019-05-07T17:38:32.003Z,6.30
2019-05-07T17:41:35.262Z,6.47
2019-05-07T17:44:38.734Z,6.37
2019-05-07T17:47:42.507Z,7.70
2019-05-07T17:50:47.646Z,7.63
2019-05-07T17:53:59.390Z,7.80
2019-05-07T17:56:56.290Z,7.03
2019-05-07T18:00:02.092Z,6.70
2019-05-07T18:03:09.941Z,6.93
2019-05-07T18:06:13.407Z,9.30
2019-05-07T18:09:16.856Z,7.80
2019-05-07T18:12:22.366Z,6.57
2019-05-07T18:15:25.566Z,8.13
2019-05-07T18:18:29.017Z,8.17
2019-05-07T18:21:32.650Z,7.73
2019-05-07T18:24:36.099Z,6.83
2019-05-07T18:27:39.559Z,7.07
2019-05-07T18:30:43.034Z,8.43
2019-05-07T18:33:54.083Z,10.00
2019-05-07T18:36:57.550Z,7.60
2019-05-07T18:40:02.502Z,8.43
2019-05-07T18:43:06.266Z,7.20
2019-05-07T18:46:09.737Z,7.97
2019-05-07T18:49:13.210Z,10.53
2019-05-07T18:52:16.651Z,8.10
2019-05-07T18:55:22.449Z,9.07
2019-05-07T18:58:25.283Z,7.67
2019-05-07T19:01:32.573Z,8.33
2019-05-07T19:04:35.799Z,9.13
2019-05-07T19:07:39.266Z,12.17
2019-05-07T19:10:42.972Z,11.57
2019-05-07T19:13:46.545Z,8.97
2019-05-07T19:16:52.394Z,9.10
2019-05-07T19:19:55.199Z,9.33
2019-05-07T19:22:58.666Z,9.30
2019-05-07T19:26:02.506Z,8.93
2019-05-07T19:29:06.146Z,8.97
2019-05-07T19:32:12.087Z,8.03
2019-05-07T19:35:15.872Z,7.77
2019-05-07T19:38:19.370Z,7.47
2019-05-07T19:41:22.828Z,8.60
2019-05-07T19:44:26.266Z,6.87
2019-05-07T19:47:29.731Z,10.53
2019-05-07T19:50:33.188Z,8.43
2019-05-07T19:53:36.652Z,10.13
2019-05-07T19:56:42.530Z,9.77
2019-05-07T19:59:46.086Z,9.67
2019-05-07T20:02:52.681Z,9.10
2019-05-07T20:05:57.006Z,9.37
2019-05-07T20:09:11.491Z,10.17
2019-05-07T20:12:08.018Z,9.40
2019-05-07T20:15:11.365Z,10.03
2019-05-07T20:18:14.819Z,8.73
2019-05-07T20:21:18.283Z,9.93
2019-05-07T20:24:22.055Z,12.27
2019-05-07T20:27:25.661Z,9.80
2019-05-07T20:30:29.129Z,9.03
2019-05-07T20:33:33.146Z,9.07
2019-05-07T20:36:36.726Z,8.87
2019-05-07T20:39:40.194Z,9.20
2019-05-07T20:42:43.639Z,10.17
2019-05-07T20:45:47.107Z,11.80
2019-05-07T20:48:52.492Z,9.73
2019-05-07T20:51:55.732Z,9.50
2019-05-07T20:55:00.862Z,9.30
2019-05-07T20:58:04.344Z,8.83
2019-05-07T21:01:07.841Z,9.00
2019-05-07T21:04:12.980Z,9.30
2019-05-07T21:07:16.542Z,9.53
2019-05-07T21:10:22.040Z,8.70
2019-05-07T21:13:31.133Z,9.37
2019-05-07T21:16:32.631Z,11.63
2019-05-07T21:19:35.538Z,8.97
2019-05-07T21:22:39.002Z,9.27
2019-05-07T21:25:45.846Z,10.47
2019-05-07T21:28:47.670Z,10.00
2019-05-07T21:31:52.430Z,9.87
2019-05-07T21:34:56.142Z,11.37
2019-05-07T21:38:05.375Z,9.40
2019-05-07T21:41:08.819Z,9.53
2019-05-07T21:44:12.273Z,12.17
2019-05-07T21:47:15.722Z,8.67
2019-05-07T21:50:19.186Z,8.53
2019-05-07T21:53:32.189Z,10.07
2019-05-07T21:56:45.354Z,9.90
2019-05-07T21:59:48.811Z,9.17
2019-05-07T22:02:52.778Z,10.97
2019-05-07T22:05:56.303Z,9.63
2019-05-07T22:09:01.559Z,10.97
2019-05-07T22:12:04.954Z,11.23
2019-05-07T22:15:10.448Z,10.33
2019-05-07T22:18:13.882Z,11.20
2019-05-07T22:21:17.336Z,9.33
2019-05-07T22:24:22.351Z,10.50
2019-05-07T22:27:26.109Z,9.67
2019-05-07T22:30:49.237Z,9.50
2019-05-07T22:34:03.122Z,11.83
2019-05-07T22:37:06.560Z,9.60
2019-05-07T22:40:12.174Z,11.17
2019-05-07T22:43:15.537Z,10.93
2019-05-07T22:46:18.997Z,12.23
2019-05-07T22:49:23.010Z,10.43
2019-05-07T22:52:26.643Z,13.90
2019-05-07T22:55:32.498Z,11.87
2019-05-07T22:58:49.105Z,11.80
2019-05-07T23:01:54.962Z,12.57
2019-05-07T23:04:58.038Z,12.83
2019-05-07T23:08:02.474Z,12.33
2019-05-07T23:11:07.426Z,10.43
2019-05-07T23:14:11.873Z,9.67
2019-05-07T23:17:15.537Z,11.17
2019-05-07T23:20:18.992Z,9.70
2019-05-07T23:23:22.461Z,9.60
2019-05-07T23:26:25.910Z,10.20
2019-05-07T23:29:29.378Z,11.73
2019-05-07T23:32:33.057Z,11.10
2019-05-07T23:35:36.658Z,10.90
2019-05-07T23:38:42.137Z,12.80
2019-05-07T23:41:46.926Z,11.27
2019-05-07T23:44:52.384Z,10.00
2019-05-07T23:47:55.549Z,10.40
2019-05-07T23:50:58.998Z,12.47
2019-05-07T23:54:02.889Z,12.40
2019-05-07T23:57:09.675Z,13.03
